Time;durP1;ratioP1;P1;durP2;ratioP2;P2;SDS_P1;SDS_P2;PMS_P1;PMS_P2;Temp;Humidity;BMP_temperature;BMP_pressure;BME280_temperature;BME280_humidity;BME280_pressure;Samples;Min_cycle;Max_cycle;Signal;HPM_P1;HPM_P2
2021/10/14 00:00:17;;;;;;;5.30;3.73;;;;;;;;;;5096662;28;20488;-90
2021/10/14 00:02:44;;;;;;;4.43;3.37;;;;;;;;;;5096917;28;20444;-92
2021/10/14 00:05:11;;;;;;;7.40;3.97;;;;;;;;;;5096733;28;21230;-91
2021/10/14 00:07:38;;;;;;;4.80;3.87;;;;;;;;;;5095852;28;20459;-90
2021/10/14 00:10:06;;;;;;;7.30;3.57;;;3.80;99.90;;;;;;5096352;28;20453;-91
2021/10/14 00:12:33;;;;;;;5.30;4.37;;;;;;;;;;5101997;28;20437;-90
2021/10/14 00:15:01;;;;;;;5.87;4.03;;;;;;;;;;5096519;28;20500;-90
2021/10/14 00:17:29;;;;;;;7.73;3.57;;;3.90;99.90;;;;;;5095551;28;20532;-89
2021/10/14 00:19:56;;;;;;;3.60;3.20;;;;;;;;;;5090474;28;20452;-89
2021/10/14 00:22:24;;;;;;;4.00;3.60;;;;;;;;;;5094497;28;20473;-88
2021/10/14 00:24:52;;;;;;;4.20;3.30;;;;;;;;;;5095449;28;20449;-88
2021/10/14 00:27:19;;;;;;;4.23;3.47;;;;;;;;;;5092098;28;20467;-90
2021/10/14 00:29:46;;;;;;;7.03;3.40;;;;;;;;;;5095601;28;20444;-91
2021/10/14 00:32:13;;;;;;;3.73;3.20;;;;;;;;;;5095156;28;20434;-90
2021/10/14 00:34:42;;;;;;;5.87;3.23;;;;;;;;;;5095133;28;20507;-89
2021/10/14 00:37:17;;;;;;;4.60;3.63;;;;;;;;;;5091356;28;20456;-89
2021/10/14 00:39:44;;;;;;;4.57;3.43;;;;;;;;;;5091921;28;20440;-89
2021/10/14 00:42:13;;;;;;;5.20;3.77;;;3.90;99.90;;;;;;5095103;28;20453;-89
2021/10/14 00:44:44;;;;;;;5.10;3.23;;;3.90;99.90;;;;;;5095316;28;20475;-90
2021/10/14 00:47:11;;;;;;;4.63;3.47;;;;;;;;;;5091818;28;20444;-88
2021/10/14 00:49:39;;;;;;;5.50;3.73;;;;;;;;;;5095076;28;20451;-90
2021/10/14 00:52:07;;;;;;;5.10;3.60;;;3.80;99.90;;;;;;5093867;28;20966;-89
2021/10/14 00:54:35;;;;;;;4.93;3.60;;;3.70;99.90;;;;;;5094615;28;20484;-88
2021/10/14 00:57:05;;;;;;;4.73;3.13;;;3.70;99.90;;;;;;5095016;28;20456;-88
2021/10/14 00:59:36;;;;;;;4.60;3.60;;;3.70;99.90;;;;;;5091638;28;20476;-90
2021/10/14 01:02:03;;;;;;;4.90;4.00;;;;;;;;;;5094555;28;20963;-88
2021/10/14 01:04:30;;;;;;;4.40;3.90;;;;;;;;;;5093929;28;20457;-89
2021/10/14 01:06:59;;;;;;;4.70;3.80;;;3.70;99.90;;;;;;5093419;28;20460;-89
2021/10/14 01:09:28;;;;;;;6.83;3.87;;;;;;;;;;5094498;28;20820;-89
2021/10/14 01:11:56;;;;;;;5.23;3.77;;;;;;;;;;5090181;28;20460;-89
2021/10/14 01:14:23;;;;;;;6.63;4.60;;;;;;;;;;5094373;28;20484;-91
2021/10/14 01:16:50;;;;;;;9.17;4.03;;;;;;;;;;5094371;28;20962;-92
2021/10/14 01:19:17;;;;;;;4.40;4.00;;;;;;;;;;5094468;28;20449;-89
2021/10/14 01:21:48;;;;;;;5.03;3.67;;;3.50;99.90;;;;;;5093284;28;20451;-89
2021/10/14 01:24:17;;;;;;;5.33;4.27;;;;;;;;;;5094506;28;20452;-90
2021/10/14 01:26:44;;;;;;;6.90;3.43;;;;;;;;;;5094550;28;20449;-90
2021/10/14 01:29:12;;;;;;;4.70;4.10;;;;;;;;;;5094052;28;20444;-91
2021/10/14 01:31:39;;;;;;;5.23;3.90;;;;;;;;;;5094576;28;20445;-89
2021/10/14 01:34:07;;;;;;;5.70;4.33;;;;;;;;;;5093974;28;20480;-90
2021/10/14 01:36:35;;;;;;;5.37;3.80;;;;;;;;;;5093837;28;20661;-89
2021/10/14 01:39:04;;;;;;;5.40;3.90;;;3.50;99.90;;;;;;5095512;28;20449;-89
2021/10/14 01:41:31;;;;;;;5.13;3.80;;;;;;;;;;5101009;28;20452;-89
2021/10/14 01:43:59;;;;;;;6.57;4.17;;;;;;;;;;5089973;28;20453;-90
2021/10/14 01:46:26;;;;;;;5.47;3.57;;;;;;;;;;5090581;28;20491;-90
2021/10/14 01:48:53;;;;;;;4.27;3.87;;;;;;;;;;5090811;28;20448;-88
2021/10/14 01:51:20;;;;;;;6.60;3.77;;;;;;;;;;5093795;28;20452;-89
2021/10/14 01:53:48;;;;;;;5.43;3.83;;;;;;;;;;5092728;28;20449;-90
2021/10/14 01:56:16;;;;;;;5.83;3.90;;;3.50;99.90;;;;;;5093640;28;20441;-91
2021/10/14 01:58:43;;;;;;;6.00;3.87;;;;;;;;;;5093548;28;20456;-89
2021/10/14 02:01:10;;;;;;;5.93;3.97;;;;;;;;;;5093318;28;20845;-91
2021/10/14 02:03:37;;;;;;;5.53;3.90;;;;;;;;;;5093742;28;20448;-90
2021/10/14 02:06:07;;;;;;;4.80;3.47;;;;;;;;;;5093612;28;20451;-91
2021/10/14 02:08:35;;;;;;;5.83;3.60;;;;;;;;;;5092987;28;20459;-92
2021/10/14 02:11:02;;;;;;;6.03;3.80;;;;;;;;;;5093949;28;20461;-90
2021/10/14 02:13:30;;;;;;;5.57;3.30;;;3.30;99.90;;;;;;5093837;28;20453;-90
2021/10/14 02:15:57;;;;;;;5.47;3.50;;;;;;;;;;5093562;28;21129;-90
2021/10/14 02:18:24;;;;;;;4.43;3.50;;;;;;;;;;5090711;28;20453;-90
2021/10/14 02:20:51;;;;;;;4.60;3.43;;;;;;;;;;5093553;28;20570;-91
2021/10/14 02:23:19;;;;;;;5.87;4.00;;;;;;;;;;5092746;28;20485;-89
2021/10/14 02:25:46;;;;;;;5.10;3.83;;;;;;;;;;5093540;28;20460;-91
2021/10/14 02:28:13;;;;;;;3.20;2.90;;;;;;;;;;5093309;28;20471;-90
2021/10/14 02:30:44;;;;;;;5.07;3.10;;;3.10;99.90;;;;;;5090202;28;20856;-91
2021/10/14 02:33:11;;;;;;;4.87;3.40;;;;;;;;;;5093044;28;20447;-91
2021/10/14 02:35:38;;;;;;;5.00;3.60;;;;;;;;;;5092891;28;20484;-92
2021/10/14 02:38:06;;;;;;;4.60;3.17;;;;;;;;;;5092339;28;20441;-90
2021/10/14 02:40:36;;;;;;;4.00;3.00;;;2.90;99.90;;;;;;5093092;28;20460;-91
2021/10/14 02:43:03;;;;;;;6.13;3.83;;;;;;;;;;5093335;28;20445;-89
2021/10/14 02:45:30;;;;;;;4.83;3.17;;;;;;;;;;5093162;28;20453;-89
2021/10/14 02:48:01;;;;;;;5.40;3.67;;;2.80;99.90;;;;;;5092774;28;20449;-91
2021/10/14 02:50:28;;;;;;;3.53;2.80;;;;;;;;;;5092859;28;20875;-91
2021/10/14 02:52:55;;;;;;;3.80;3.30;;;;;;;;;;5091856;28;20539;-89
2021/10/14 02:55:22;;;;;;;4.03;3.23;;;;;;;;;;5093035;28;20492;-91
2021/10/14 02:57:49;;;;;;;5.60;4.00;;;;;;;;;;5093104;28;20456;-92
2021/10/14 03:00:17;;;;;;;4.13;2.80;;;;;;;;;;5089948;28;20861;-90
2021/10/14 03:02:44;;;;;;;3.90;3.50;;;;;;;;;;5092857;28;20940;-91
2021/10/14 03:05:12;;;;;;;4.90;3.53;;;;;;;;;;5094004;28;20448;-91
2021/10/14 03:07:41;;;;;;;3.90;2.93;;;;;;;;;;5101182;28;20440;-91
2021/10/14 03:10:09;;;;;;;4.67;3.07;;;2.60;99.90;;;;;;5096334;28;20545;-92
2021/10/14 03:12:39;;;;;;;4.97;3.90;;;2.60;99.90;;;;;;5090234;28;20467;-90
2021/10/14 03:15:07;;;;;;;5.17;3.07;;;2.60;99.90;;;;;;5089843;28;20629;-89
2021/10/14 03:17:35;;;;;;;3.83;3.43;;;;;;;;;;5092854;28;20449;-91
2021/10/14 03:20:02;;;;;;;4.30;3.03;;;;;;;;;;5093011;28;20451;-90
2021/10/14 03:22:30;;;;;;;4.50;3.10;;;2.60;99.90;;;;;;5091874;28;20465;-91
2021/10/14 03:24:57;;;;;;;6.77;4.00;;;;;;;;;;5092557;28;20484;-90
2021/10/14 03:27:24;;;;;;;6.57;3.67;;;;;;;;;;5092868;28;20444;-90
2021/10/14 03:29:52;;;;;;;4.93;4.00;;;;;;;;;;5096576;28;20459;-91
2021/10/14 03:32:22;;;;;;;4.73;4.23;;;2.60;99.90;;;;;;5093685;28;20966;-89
2021/10/14 03:34:49;;;;;;;5.27;3.43;;;;;;;;;;5095974;28;20587;-91
2021/10/14 03:37:16;;;;;;;4.30;3.90;;;;;;;;;;5095863;28;20555;-90
2021/10/14 03:39:45;;;;;;;6.00;4.20;;;;;;;;;;5096687;28;20445;-89
2021/10/14 03:42:16;;;;;;;5.97;3.43;;;;;;;;;;5093767;28;20832;-92
2021/10/14 03:44:43;;;;;;;4.13;3.37;;;;;;;;;;5096380;28;20452;-90
2021/10/14 03:47:10;;;;;;;4.40;3.20;;;;;;;;;;5091994;28;20457;-89
2021/10/14 03:49:42;;;;;;;5.60;3.73;;;2.70;99.90;;;;;;5093357;28;20429;-90
2021/10/14 03:52:09;;;;;;;7.27;4.13;;;;;;;;;;5088224;28;20464;-89
2021/10/14 03:54:36;;;;;;;3.20;2.90;;;;;;;;;;5096165;28;20515;-89
2021/10/14 03:57:16;;;;;;;5.70;3.80;;;2.90;99.90;;;;;;5096244;28;20456;-91
2021/10/14 03:59:44;;;;;;;8.73;5.97;;;;;;;;;;5093005;28;20551;-89
2021/10/14 04:02:11;;;;;;;33.90;17.00;;;;;;;;;;5095688;28;20810;-90
2021/10/14 04:04:38;;;;;;;6.20;3.43;;;;;;;;;;5095564;28;20543;-89
2021/10/14 04:07:05;;;;;;;4.50;3.33;;;;;;;;;;5095455;28;20950;-90
2021/10/14 04:09:32;;;;;;;5.97;3.60;;;;;;;;;;5096635;28;20461;-91
2021/10/14 04:11:59;;;;;;;4.40;3.40;;;;;;;;;;5096447;28;20444;-88
2021/10/14 04:14:29;;;;;;;4.77;3.20;;;;;;;;;;5093166;28;20498;-91
2021/10/14 04:16:56;;;;;;;4.37;3.60;;;;;;;;;;5096114;28;20453;-90
2021/10/14 04:19:23;;;;;;;4.70;3.10;;;;;;;;;;5095940;28;20449;-92
2021/10/14 04:21:50;;;;;;;7.10;3.73;;;;;;;;;;5094581;28;20472;-90
2021/10/14 04:24:18;;;;;;;3.73;2.53;;;;;;;;;;5096011;28;20449;-92
2021/10/14 04:26:45;;;;;;;6.60;3.03;;;;;;;;;;5095489;28;20457;-90
2021/10/14 04:29:12;;;;;;;7.00;3.23;;;;;;;;;;5092411;28;20445;-90
2021/10/14 04:31:41;;;;;;;8.60;3.53;;;;;;;;;;5095982;28;20449;-91
2021/10/14 04:34:08;;;;;;;8.23;2.97;;;;;;;;;;5105329;28;20457;-90
2021/10/14 04:36:36;;;;;;;4.73;3.37;;;3.20;99.90;;;;;;5103341;28;20492;-90
2021/10/14 04:39:04;;;;;;;5.33;3.77;;;;;;;;;;5095390;28;20448;-90
2021/10/14 04:41:31;;;;;;;4.83;3.73;;;;;;;;;;5095361;28;20440;-91
2021/10/14 04:43:58;;;;;;;8.90;4.13;;;;;;;;;;5090544;28;20441;-90
2021/10/14 04:46:25;;;;;;;4.80;3.40;;;;;;;;;;5092646;28;20437;-92
2021/10/14 04:48:53;;;;;;;7.10;4.40;;;3.40;99.90;;;;;;5095477;28;20787;-92
2021/10/14 04:51:20;;;;;;;5.40;3.60;;;;;;;;;;5095544;28;20461;-90
2021/10/14 04:53:47;;;;;;;5.97;3.33;;;;;;;;;;5091668;28;20464;-91
2021/10/14 04:56:15;;;;;;;6.50;3.93;;;;;;;;;;5095240;28;21009;-89
2021/10/14 04:58:42;;;;;;;4.67;3.40;;;;;;;;;;5095499;28;20445;-91
2021/10/14 05:01:09;;;;;;;5.60;3.73;;;;;;;;;;5092116;28;20488;-91
2021/10/14 05:03:36;;;;;;;5.77;3.83;;;;;;;;;;5095326;28;20448;-91
2021/10/14 05:06:04;;;;;;;8.63;4.37;;;3.60;99.90;;;;;;5092169;28;20449;-90
2021/10/14 05:08:31;;;;;;;6.10;4.77;;;;;;;;;;5091580;28;20452;-92
2021/10/14 05:10:58;;;;;;;6.70;4.30;;;;;;;;;;5091007;28;20468;-90
2021/10/14 05:13:26;;;;;;;7.40;4.93;;;;;;;;;;5092212;28;20436;-90
2021/10/14 05:15:53;;;;;;;10.03;6.00;;;;;;;;;;5094970;28;20998;-90
2021/10/14 05:18:20;;;;;;;9.30;3.60;;;;;;;;;;5091177;28;20821;-90
2021/10/14 05:20:47;;;;;;;5.83;4.10;;;;;;;;;;5095343;28;20473;-91
2021/10/14 05:23:15;;;;;;;6.27;3.80;;;;;;;;;;5094201;28;20445;-91
2021/10/14 05:25:42;;;;;;;8.30;3.73;;;;;;;;;;5091839;28;20457;-91
2021/10/14 05:28:09;;;;;;;6.40;3.70;;;;;;;;;;5094579;28;20433;-90
2021/10/14 05:30:37;;;;;;;10.30;6.00;;;;;;;;;;5091883;28;20483;-91
2021/10/14 05:33:04;;;;;;;5.93;4.70;;;;;;;;;;5094679;28;20453;-90
2021/10/14 05:35:31;;;;;;;4.13;3.73;;;;;;;;;;5091808;28;20489;-91
2021/10/14 05:37:58;;;;;;;4.73;3.60;;;;;;;;;;5094103;28;20452;-91
2021/10/14 05:40:27;;;;;;;4.90;4.00;;;;;;;;;;5094980;28;20445;-90
2021/10/14 05:42:54;;;;;;;10.87;6.43;;;;;;;;;;5095061;28;20449;-90
2021/10/14 05:45:21;;;;;;;20.10;8.10;;;;;;;;;;5094424;28;20970;-89
2021/10/14 05:47:49;;;;;;;11.20;7.60;;;;;;;;;;5094151;28;20452;-89
2021/10/14 05:50:16;;;;;;;12.40;7.17;;;;;;;;;;5093946;28;20548;-89
2021/10/14 05:52:43;;;;;;;9.63;6.80;;;;;;;;;;5093215;28;20915;-90
2021/10/14 05:55:11;;;;;;;12.33;6.70;;;;;;;;;;5094412;28;20987;-91
2021/10/14 05:57:39;;;;;;;6.70;4.20;;;4.50;99.90;;;;;;5093544;28;20449;-89
2021/10/14 06:00:07;;;;;;;5.70;4.30;;;4.40;99.90;;;;;;5070413;28;20469;-90
2021/10/14 06:02:34;;;;;;;8.23;5.17;;;;;;;;;;5091738;28;20449;-89
2021/10/14 06:05:01;;;;;;;7.00;4.43;;;;;;;;;;5093733;28;20451;-91
2021/10/14 06:07:28;;;;;;;5.30;4.10;;;;;;;;;;5092715;28;20960;-89
2021/10/14 06:09:55;;;;;;;10.77;5.50;;;;;;;;;;5093786;28;20440;-91
2021/10/14 06:12:22;;;;;;;7.33;5.40;;;;;;;;;;5091043;28;20459;-92
2021/10/14 06:14:51;;;;;;;9.70;5.20;;;4.60;99.90;;;;;;5091095;28;20459;-90
2021/10/14 06:17:18;;;;;;;12.10;5.57;;;;;;;;;;5094273;28;20489;-91
2021/10/14 06:19:45;;;;;;;6.90;4.47;;;;;;;;;;5093917;28;20452;-91
2021/10/14 06:22:12;;;;;;;7.93;6.43;;;;;;;;;;5093230;28;20456;-89
2021/10/14 06:24:40;;;;;;;9.03;6.27;;;;;;;;;;5075683;28;20457;-91
2021/10/14 06:27:07;;;;;;;10.23;5.30;;;;;;;;;;5094084;28;20434;-90
2021/10/14 06:29:34;;;;;;;6.57;5.00;;;;;;;;;;5093698;28;20453;-91
2021/10/14 06:32:03;;;;;;;6.30;4.53;;;;;;;;;;5093706;28;20444;-90
2021/10/14 06:34:30;;;;;;;8.73;4.70;;;;;;;;;;5091103;28;20444;-92
2021/10/14 06:36:57;;;;;;;8.23;4.20;;;;;;;;;;5093046;28;20491;-90
2021/10/14 06:39:24;;;;;;;9.37;4.00;;;;;;;;;;5092975;28;20437;-86
2021/10/14 06:41:53;;;;;;;6.67;4.33;;;;;;;;;;5093616;28;20448;-90
2021/10/14 06:44:21;;;;;;;11.60;5.33;;;;;;;;;;5090881;28;20437;-85
2021/10/14 06:46:48;;;;;;;5.50;3.53;;;;;;;;;;5093539;28;20461;-89
2021/10/14 06:49:17;;;;;;;4.63;3.60;;;6.00;99.90;;;;;;5091081;28;20483;-88
2021/10/14 06:51:44;;;;;;;8.47;3.63;;;;;;;;;;5088774;28;20601;-87
2021/10/14 06:54:12;;;;;;;3.83;3.33;;;6.20;99.90;;;;;;5090509;28;20441;-92
2021/10/14 06:56:40;;;;;;;5.60;3.03;;;;;;;;;;5092200;28;20499;-89
2021/10/14 06:59:08;;;;;;;7.33;3.00;;;6.20;99.90;;;;;;5092666;28;20449;-87
2021/10/14 07:01:35;;;;;;;2.97;2.67;;;;;;;;;;5092254;28;20483;-89
2021/10/14 07:04:02;;;;;;;4.63;2.90;;;;;;;;;;5091999;28;20537;-87
2021/10/14 07:06:30;;;;;;;3.57;3.20;;;6.70;99.90;;;;;;5096728;28;20785;-87
2021/10/14 07:08:58;;;;;;;4.40;3.10;;;;;;;;;;5095602;28;20800;-87
2021/10/14 07:11:30;;;;;;;4.07;2.90;;;;;;;;;;5095263;28;20472;-87
2021/10/14 07:13:57;;;;;;;9.00;2.90;;;;;;;;;;5096727;28;20463;-89
2021/10/14 07:16:24;;;;;;;7.77;3.70;;;;;;;;;;5096791;28;20484;-90
2021/10/14 07:18:52;;;;;;;4.07;2.97;;;;;;;;;;5096577;28;20451;-90
2021/10/14 07:21:19;;;;;;;6.70;2.73;;;;;;;;;;5096760;28;20451;-90
2021/10/14 07:23:47;;;;;;;8.53;4.10;;;8.00;99.90;;;;;;5096272;28;20445;-90
2021/10/14 07:26:14;;;;;;;4.60;2.73;;;;;;;;;;5105031;28;20456;-89
2021/10/14 07:28:41;;;;;;;4.20;3.07;;;;;;;;;;5101084;28;20791;-87
2021/10/14 07:31:08;;;;;;;5.83;3.10;;;;;;;;;;5098388;28;20441;-90
2021/10/14 07:33:36;;;;;;;4.30;2.67;;;;;;;;;;5100001;28;20449;-90
2021/10/14 07:36:05;;;;;;;3.37;2.37;;;;;;;;;;5101617;28;20480;-90
2021/10/14 07:38:32;;;;;;;3.20;2.60;;;;;;;;;;5097540;28;20524;-89
2021/10/14 07:41:02;;;;;;;4.33;3.10;;;7.80;99.90;;;;;;5096912;28;20455;-90
2021/10/14 07:43:29;;;;;;;4.47;2.63;;;;;;;;;;5102515;28;20823;-91
2021/10/14 07:45:56;;;;;;;3.63;2.70;;;;;;;;;;5098459;28;20460;-90
2021/10/14 07:48:23;;;;;;;4.03;2.50;;;;;;;;;;5098922;28;20444;-87
2021/10/14 07:50:50;;;;;;;3.80;2.60;;;;;;;;;;5099783;28;20444;-88
2021/10/14 07:53:18;;;;;;;4.10;2.37;;;8.30;99.90;;;;;;5098714;28;20448;-91
2021/10/14 07:55:46;;;;;;;3.77;2.60;;;8.20;99.90;;;;;;5096540;28;20436;-89
2021/10/14 07:58:15;;;;;;;2.93;2.40;;;;;;;;;;5092255;28;20446;-91
2021/10/14 08:00:42;;;;;;;6.87;3.07;;;8.20;99.90;;;;;;5078896;28;20492;-90
2021/10/14 08:03:09;;;;;;;5.43;2.97;;;;;;;;;;5072974;28;20453;-89
2021/10/14 08:05:37;;;;;;;5.47;2.33;;;;;;;;;;5072735;28;20445;-91
2021/10/14 08:08:05;;;;;;;7.23;2.80;;;;;;;;;;5075570;28;20449;-90
2021/10/14 08:10:33;;;;;;;5.27;2.50;;;;;;;;;;5075917;28;20493;-87
2021/10/14 08:13:00;;;;;;;5.63;2.90;;;;;;;;;;5072761;28;20531;-90
2021/10/14 08:15:28;;;;;;;3.80;2.40;;;9.60;99.90;;;;;;5077902;28;20441;-93
2021/10/14 08:17:56;;;;;;;7.70;2.90;;;;;;;;;;5076628;28;20497;-89
2021/10/14 08:20:23;;;;;;;3.20;2.47;;;;;;;;;;5073264;28;20797;-90
2021/10/14 08:22:50;;;;;;;3.70;2.83;;;;;;;;;;5073434;28;20515;-92
2021/10/14 08:25:17;;;;;;;6.03;2.70;;;;;;;;;;5073829;28;20827;-94
2021/10/14 08:27:45;;;;;;;3.60;2.03;;;;;;;;;;5075612;28;20449;-92
2021/10/14 08:30:17;;;;;;;4.90;2.17;;;11.60;99.90;;;;;;5076737;28;21004;-91
2021/10/14 08:32:46;;;;;;;2.47;2.00;;;11.90;99.90;;;;;;5072742;28;20438;-88
2021/10/14 08:35:13;;;;;;;4.57;2.60;;;11.50;99.90;;;;;;5097418;28;20453;-88
2021/10/14 08:37:41;;;;;;;3.10;1.60;;;;;;;;;;5100308;28;20484;-89
2021/10/14 08:40:09;;;;;;;2.10;1.80;;;10.70;99.90;;;;;;5094676;28;20453;-93
2021/10/14 08:42:36;;;;;;;2.67;2.00;;;;;;;;;;5093191;28;20453;-92
2021/10/14 08:45:05;;;;;;;4.23;2.20;;;12.50;99.90;;;;;;5096495;28;20449;-92
2021/10/14 08:47:32;;;;;;;2.97;2.20;;;11.90;99.90;;;;;;5093461;28;20452;-90
2021/10/14 08:50:01;;;;;;;2.10;1.90;;;12.10;99.90;;;;;;5096341;28;20808;-92
2021/10/14 08:52:29;;;;;;;3.37;2.50;;;;;;;;;;5100247;28;20449;-89
2021/10/14 08:54:56;;;;;;;3.90;2.30;;;;;;;;;;5099424;28;20449;-87
2021/10/14 08:57:24;;;;;;;3.63;2.23;;;;;;;;;;5092024;28;20587;-93
2021/10/14 08:59:51;;;;;;;2.20;1.60;;;;;;;;;;5094853;28;20487;-88
2021/10/14 09:02:23;;;;;;;1.87;1.50;;;;;;;;;;5094643;28;20452;-87
2021/10/14 09:04:59;;;;;;;7.33;2.20;;;14.40;99.90;;;;;;5094737;28;20531;-92
2021/10/14 09:07:30;;;;;;;4.07;2.10;;;14.30;99.90;;;;;;5093554;28;20938;-89
2021/10/14 09:10:00;;;;;;;1.80;1.63;;;14.50;99.90;;;;;;5094830;28;20852;-89
2021/10/14 09:12:34;;;;;;;3.17;1.97;;;14.00;99.90;;;;;;5094548;28;20782;-89
2021/10/14 09:15:04;;;;;;;3.20;1.60;;;14.00;99.90;;;;;;5090291;28;20452;-90
2021/10/14 09:17:45;;;;;;;2.60;2.13;;;12.80;99.90;;;;;;5094307;28;20499;-90
2021/10/14 09:20:25;;;;;;;2.47;1.70;;;13.70;99.90;;;;;;5094718;28;20931;-94
2021/10/14 09:22:55;;;;;;;3.20;2.07;;;13.80;99.90;;;;;;5090864;28;20927;-91
2021/10/14 09:25:28;;;;;;;2.33;1.63;;;14.70;99.90;;;;;;5099637;28;20452;-94
2021/10/14 09:28:07;;;;;;;3.60;1.70;;;15.40;99.90;;;;;;5081841;28;20456;-89
2021/10/14 09:30:40;;;;;;;4.27;1.53;;;;;;;;;;5113552;22;20487;-88
2021/10/14 09:33:07;;;;;;;4.17;2.10;;;;;;;;;;5121262;28;20454;-94
2021/10/14 09:35:34;;;;;;;2.53;1.70;;;;;;;;;;5117653;28;20436;-91
2021/10/14 09:38:03;;;;;;;2.93;1.87;;;;;;;;;;5121477;28;20831;-90
2021/10/14 09:40:30;;;;;;;3.70;1.70;;;;;;;;;;5119347;28;20448;-92
2021/10/14 09:42:59;;;;;;;3.17;2.27;;;;;;;;;;5124375;28;20455;-88
2021/10/14 09:45:30;;;;;;;3.03;1.83;;;14.40;99.20;;;;;;5127052;28;20522;-87
2021/10/14 09:48:11;;;;;;;3.13;2.10;;;14.70;98.50;;;;;;5121699;28;20566;-87
2021/10/14 09:50:39;;;;;;;1.87;1.60;;;15.20;98.20;;;;;;5120053;28;20452;-87
2021/10/14 09:53:10;;;;;;;2.17;1.83;;;15.70;97.60;;;;;;5119497;28;20459;-89
2021/10/14 09:55:37;;;;;;;2.10;1.50;;;;;;;;;;5122658;28;20436;-90
2021/10/14 09:58:05;;;;;;;3.40;1.90;;;;;;;;;;5116938;28;20998;-88
2021/10/14 10:00:32;;;;;;;3.17;1.47;;;;;;;;;;5116065;28;20451;-88
2021/10/14 10:03:01;;;;;;;3.30;1.90;;;16.10;98.30;;;;;;5113874;28;20456;-87
2021/10/14 10:05:29;;;;;;;4.27;1.70;;;15.80;96.10;;;;;;5114262;28;20448;-89
2021/10/14 10:07:57;;;;;;;3.50;1.70;;;16.30;96.00;;;;;;5110220;28;20459;-89
2021/10/14 10:10:27;;;;;;;3.00;1.80;;;19.10;95.00;;;;;;5105025;28;20963;-88
2021/10/14 10:12:57;;;;;;;2.90;1.50;;;16.70;94.60;;;;;;5114230;28;20458;-89
2021/10/14 10:15:41;;;;;;;2.30;1.70;;;16.50;95.00;;;;;;5114103;28;20455;-91
2021/10/14 10:18:41;;;;;;;3.00;1.93;;;16.00;95.30;;;;;;5114386;28;20488;-90
2021/10/14 10:21:10;;;;;;;3.80;1.73;;;14.90;96.60;;;;;;5120288;28;20467;-92
2021/10/14 10:23:50;;;;;;;3.27;1.73;;;14.40;97.90;;;;;;5114118;28;20973;-88
2021/10/14 10:26:50;;;;;;;2.93;1.40;;;14.00;99.10;;;;;;5110684;28;20489;-92
2021/10/14 10:29:41;;;;;;;3.90;1.57;;;15.50;97.90;;;;;;5116045;28;20486;-86
2021/10/14 10:32:24;;;;;;;2.03;1.80;;;17.00;96.30;;;;;;5113288;28;20451;-88
2021/10/14 10:35:02;;;;;;;1.57;1.40;;;16.70;96.80;;;;;;5111745;28;20838;-90
2021/10/14 10:37:37;;;;;;;2.20;1.60;;;16.20;94.20;;;;;;5111291;28;20483;-90
2021/10/14 10:40:17;;;;;;;3.17;1.90;;;16.10;95.60;;;;;;5113597;28;20923;-89
2021/10/14 10:42:48;;;;;;;3.13;1.87;;;15.80;95.80;;;;;;5110609;28;20458;-89
2021/10/14 10:45:17;;;;;;;2.70;1.97;;;15.60;96.30;;;;;;5113430;28;20454;-90
2021/10/14 10:47:50;;;;;;;4.10;2.03;;;15.80;96.20;;;;;;5110425;28;20533;-88
2021/10/14 10:50:22;;;;;;;2.40;1.80;;;15.80;96.80;;;;;;5108869;28;20451;-90
2021/10/14 10:53:00;;;;;;;2.00;1.80;;;18.40;96.80;;;;;;5113224;28;20447;-91
2021/10/14 10:55:41;;;;;;;2.63;2.10;;;16.30;94.90;;;;;;5110673;28;20440;-93
2021/10/14 10:58:12;;;;;;;4.03;2.20;;;16.30;96.20;;;;;;5114921;28;20490;-93
2021/10/14 11:00:41;;;;;;;3.23;2.60;;;16.20;96.20;;;;;;5114447;28;20447;-89
2021/10/14 11:03:11;;;;;;;3.70;2.30;;;16.40;97.00;;;;;;5102195;28;20437;-90
2021/10/14 11:05:40;;;;;;;3.03;1.83;;;16.70;96.90;;;;;;5092824;28;20445;-90
2021/10/14 11:08:08;;;;;;;2.40;1.90;;;;;;;;;;5088286;28;20476;-89
2021/10/14 11:10:35;;;;;;;7.20;2.10;;;;;;;;;;5089983;28;20461;-90
2021/10/14 11:13:02;;;;;;;5.43;2.27;;;;;;;;;;5092835;28;20444;-87
2021/10/14 11:15:31;;;;;;;3.70;1.73;;;19.00;94.10;;;;;;5092692;28;20576;-88
2021/10/14 11:18:02;;;;;;;2.30;2.10;;;18.60;92.30;;;;;;5092632;28;20495;-89
2021/10/14 11:20:29;;;;;;;4.97;2.23;;;;;;;;;;5089846;28;20488;-92
2021/10/14 11:23:02;;;;;;;2.40;2.20;;;17.20;93.20;;;;;;5094085;28;20460;-91
2021/10/14 11:25:32;;;;;;;2.30;2.10;;;;;;;;;;5093495;28;20472;-94
2021/10/14 11:28:04;;;;;;;5.73;2.40;;;17.70;94.40;;;;;;5094878;28;20444;-92
2021/10/14 11:30:45;;;;;;;4.57;3.00;;;17.60;93.80;;;;;;5090763;28;20469;-91
2021/10/14 11:33:14;;;;;;;2.37;2.17;;;16.60;95.50;;;;;;5094693;28;20436;-91
2021/10/14 11:35:41;;;;;;;2.90;2.70;;;;;;;;;;5090783;28;20473;-91
2021/10/14 11:38:13;;;;;;;5.33;3.00;;;16.20;96.50;;;;;;5093906;28;20488;-92
2021/10/14 11:40:41;;;;;;;2.97;2.20;;;16.10;97.20;;;;;;5093567;28;20452;-90
2021/10/14 11:43:09;;;;;;;4.43;2.90;;;;;;;;;;5090860;28;20437;-88
2021/10/14 11:45:44;;;;;;;4.03;2.57;;;16.50;97.10;;;;;;5094012;28;20483;-89
2021/10/14 11:48:38;;;;;;;4.90;2.90;;;16.20;97.00;;;;;;5095676;28;20440;-91
2021/10/14 11:51:10;;;;;;;3.77;2.70;;;16.30;99.90;;;;;;5043101;28;20448;-90
2021/10/14 11:53:38;;;;;;;2.70;2.50;;;16.60;96.10;;;;;;5094807;28;20448;-90
2021/10/14 11:56:07;;;;;;;4.00;2.30;;;16.60;96.50;;;;;;5096949;28;20487;-92
2021/10/14 11:58:34;;;;;;;3.73;2.43;;;;;;;;;;5102266;28;21014;-92
2021/10/14 12:01:07;;;;;;;4.53;2.40;;;16.80;97.20;;;;;;5107095;28;20464;-93
2021/10/14 12:03:35;;;;;;;4.40;2.10;;;18.30;97.30;;;;;;5099011;28;20444;-93
2021/10/14 12:06:03;;;;;;;4.00;2.00;;;16.80;97.20;;;;;;5097687;28;20498;-92
2021/10/14 12:08:31;;;;;;;7.13;2.97;;;16.80;96.30;;;;;;5096802;28;20451;-93
2021/10/14 12:13:26;;;;;;;3.97;2.20;;;16.60;96.40;;;;;;5102915;23;20489;-91
2021/10/14 12:16:08;;;;;;;3.93;2.73;;;16.90;95.00;;;;;;5099709;28;20195;-87
2021/10/14 12:18:36;;;;;;;4.83;2.47;;;;;;;;;;5098486;28;20480;-92
2021/10/14 12:21:03;;;;;;;3.67;2.70;;;;;;;;;;5114886;28;20828;-89
2021/10/14 12:23:31;;;;;;;3.30;2.80;;;16.40;96.00;;;;;;5117689;28;20531;-94
2021/10/14 12:26:12;;;;;;;4.20;2.60;;;17.60;96.40;;;;;;5113218;28;20541;-88
2021/10/14 12:28:42;;;;;;;4.30;2.60;;;;;;;;;;5117680;28;20450;-88
2021/10/14 12:31:13;;;;;;;4.40;2.90;;;18.50;94.90;;;;;;5117273;28;20448;-89
2021/10/14 12:33:41;;;;;;;3.77;2.70;;;17.90;94.70;;;;;;5118519;28;20436;-90
2021/10/14 12:36:08;;;;;;;3.13;2.13;;;;;;;;;;5110099;28;20445;-90
2021/10/14 12:38:38;;;;;;;2.80;2.17;;;18.50;99.90;;;;;;5095530;28;20500;-91
2021/10/14 12:41:06;;;;;;;3.67;2.70;;;18.60;94.10;;;;;;5096375;28;20449;-90
2021/10/14 12:43:44;;;;;;;5.33;2.20;;;19.00;99.90;;;;;;5097578;28;20449;-91
2021/10/14 12:46:34;;;;;;;3.30;2.43;;;18.20;95.60;;;;;;5096968;28;20433;-87
2021/10/14 12:49:26;;;;;;;2.70;2.40;;;17.70;99.90;;;;;;5095673;28;20453;-93
2021/10/14 12:51:54;;;;;;;4.43;2.50;;;17.00;95.60;;;;;;5094683;28;20518;-89
2021/10/14 12:54:22;;;;;;;3.33;2.40;;;17.60;95.20;;;;;;5095580;28;20463;-92
2021/10/14 12:56:52;;;;;;;2.40;2.20;;;18.30;94.40;;;;;;5095345;28;20456;-90
2021/10/14 12:59:19;;;;;;;3.53;2.40;;;;;;;;;;5094951;28;20488;-88
2021/10/14 13:01:49;;;;;;;2.50;1.87;;;18.20;94.40;;;;;;5095156;28;20453;-91
2021/10/14 13:04:21;;;;;;;3.57;2.00;;;18.50;94.30;;;;;;5095702;28;20452;-88
2021/10/14 13:06:49;;;;;;;3.33;2.13;;;;;;;;;;5089037;28;20527;-88
2021/10/14 13:09:16;;;;;;;5.10;2.30;;;;;;;;;;5095581;28;20780;-95
2021/10/14 13:11:43;;;;;;;4.93;2.10;;;;;;;;;;5092101;28;20953;-88
2021/10/14 13:14:12;;;;;;;3.43;1.90;;;18.20;96.70;;;;;;5096384;28;20936;-87
2021/10/14 13:16:40;;;;;;;3.50;2.47;;;;;;;;;;5093956;28;20952;-95
2021/10/14 13:19:09;;;;;;;4.97;2.30;;;19.20;95.50;;;;;;5098317;28;20495;-89
2021/10/14 13:21:42;;;;;;;3.53;2.13;;;19.70;93.80;;;;;;5108568;27;20536;-88
2021/10/14 13:24:10;;;;;;;2.40;1.73;;;;;;;;;;5095520;28;20484;-88
2021/10/14 13:26:37;;;;;;;7.00;2.10;;;;;;;;;;5097315;28;20807;-90
2021/10/14 13:29:05;;;;;;;2.83;1.90;;;;;;;;;;5094084;28;20460;-88
2021/10/14 13:31:32;;;;;;;3.57;1.97;;;;;;;;;;5092274;28;20445;-92
2021/10/14 13:34:00;;;;;;;3.07;2.40;;;;;;;;;;5091997;28;20449;-94
2021/10/14 13:36:29;;;;;;;2.37;1.90;;;18.80;99.90;;;;;;5098025;28;20495;-90
2021/10/14 13:38:56;;;;;;;2.20;1.47;;;;;;;;;;5094086;28;20500;-88
2021/10/14 13:41:26;;;;;;;2.93;2.07;;;19.10;98.60;;;;;;5096686;28;20453;-88
2021/10/14 13:44:00;;;;;;;3.27;1.77;;;19.40;93.00;;;;;;5099188;28;20477;-87
2021/10/14 13:46:27;;;;;;;1.67;1.57;;;;;;;;;;5098963;28;20513;-92
2021/10/14 13:48:54;;;;;;;3.80;1.77;;;;;;;;;;5096015;28;20441;-88
2021/10/14 13:51:21;;;;;;;2.17;1.40;;;;;;;;;;5102347;27;20439;-91
2021/10/14 13:53:50;;;;;;;3.60;1.60;;;19.60;92.30;;;;;;5124170;27;20435;-92
2021/10/14 13:56:17;;;;;;;1.60;1.50;;;;;;;;;;5138032;27;20446;-90
2021/10/14 13:58:45;;;;;;;2.90;1.43;;;19.10;94.00;;;;;;5122404;27;20487;-90
2021/10/14 14:01:12;;;;;;;2.57;1.50;;;;;;;;;;5111851;28;20440;-88
2021/10/14 14:03:39;;;;;;;2.30;1.60;;;;;;;;;;5115815;28;20523;-88
2021/10/14 14:06:06;;;;;;;2.90;1.93;;;;;;;;;;5112547;28;20452;-91
2021/10/14 14:08:34;;;;;;;4.13;1.70;;;;;;;;;;5114143;28;20444;-91